sensor_id;sensor_type;location;lat;lon;timestamp;pressure;altitude;pressure_sealevel;temperature;humidity
57606;BME280;43430;48.204;11.556;2023-04-06T11:25:32;96069.59;;;7.82;41.36
57606;BME280;43430;48.204;11.556;2023-04-06T11:27:58;96061.91;;;7.74;42.02
57606;BME280;43430;48.204;11.556;2023-04-06T11:30:24;96065.13;;;7.82;43.37
57606;BME280;43430;48.204;11.556;2023-04-06T11:32:50;96069.38;;;8.10;43.28
57606;BME280;43430;48.204;11.556;2023-04-06T11:35:20;96056.63;;;8.33;43.30
57606;BME280;43430;48.204;11.556;2023-04-06T11:37:46;96059.78;;;8.69;43.89
57606;BME280;43430;48.204;11.556;2023-04-06T11:40:11;96060.59;;;8.63;42.54
57606;BME280;43430;48.204;11.556;2023-04-06T11:42:37;96048.38;;;8.88;41.75
57606;BME280;43430;48.204;11.556;2023-04-06T11:45:03;96051.03;;;8.88;41.79
57606;BME280;43430;48.204;11.556;2023-04-06T11:47:37;96046.03;;;9.12;40.88
57606;BME280;43430;48.204;11.556;2023-04-06T11:50:10;96038.56;;;9.15;39.17
57606;BME280;43430;48.204;11.556;2023-04-06T11:52:36;96034.13;;;9.41;39.50
57606;BME280;43430;48.204;11.556;2023-04-06T11:55:16;96032.69;;;9.45;39.31
57606;BME280;43430;48.204;11.556;2023-04-06T11:57:43;96033.06;;;9.48;38.30
57606;BME280;43430;48.204;11.556;2023-04-06T12:00:09;96030.19;;;9.57;39.66
57606;BME280;43430;48.204;11.556;2023-04-06T12:02:35;96029.91;;;9.40;38.03
57606;BME280;43430;48.204;11.556;2023-04-06T12:05:02;96031.19;;;9.56;38.39
57606;BME280;43430;48.204;11.556;2023-04-06T12:07:29;96027.72;;;9.62;37.60
57606;BME280;43430;48.204;11.556;2023-04-06T12:09:54;96029.31;;;9.63;39.02
57606;BME280;43430;48.204;11.556;2023-04-06T12:12:20;96024.69;;;9.83;39.25
57606;BME280;43430;48.204;11.556;2023-04-06T12:14:45;96023.75;;;9.46;39.54
57606;BME280;43430;48.204;11.556;2023-04-06T12:17:11;96026.25;;;9.41;40.20
57606;BME280;43430;48.204;11.556;2023-04-06T12:19:36;96025.41;;;9.47;39.21
57606;BME280;43430;48.204;11.556;2023-04-06T12:22:01;96020.75;;;9.42;40.21
57606;BME280;43430;48.204;11.556;2023-04-06T12:24:27;96014.81;;;9.54;39.88
57606;BME280;43430;48.204;11.556;2023-04-06T12:26:53;96017.34;;;9.67;39.68
57606;BME280;43430;48.204;11.556;2023-04-06T12:29:19;96017.22;;;9.55;39.34
57606;BME280;43430;48.204;11.556;2023-04-06T12:31:57;96018.81;;;9.31;38.23
57606;BME280;43430;48.204;11.556;2023-04-06T12:34:28;96014.91;;;9.09;38.58
57606;BME280;43430;48.204;11.556;2023-04-06T12:37:41;96006.84;;;9.35;41.47
57606;BME280;43430;48.204;11.556;2023-04-06T12:40:12;96002.75;;;9.71;40.18
57606;BME280;43430;48.204;11.556;2023-04-06T12:42:56;96006.00;;;9.91;38.91
57606;BME280;43430;48.204;11.556;2023-04-06T12:45:21;95997.81;;;9.99;38.24
57606;BME280;43430;48.204;11.556;2023-04-06T12:47:56;95993.41;;;9.93;37.12
57606;BME280;43430;48.204;11.556;2023-04-06T12:50:21;95990.63;;;9.88;36.15
57606;BME280;43430;48.204;11.556;2023-04-06T12:52:50;96006.44;;;9.88;37.82
57606;BME280;43430;48.204;11.556;2023-04-06T12:55:15;95990.47;;;9.58;37.83
57606;BME280;43430;48.204;11.556;2023-04-06T12:57:41;96002.28;;;9.49;39.67
57606;BME280;43430;48.204;11.556;2023-04-06T13:00:07;95999.22;;;9.52;39.34
57606;BME280;43430;48.204;11.556;2023-04-06T13:02:32;96004.38;;;9.40;38.03
57606;BME280;43430;48.204;11.556;2023-04-06T13:04:58;95999.91;;;9.16;38.11
57606;BME280;43430;48.204;11.556;2023-04-06T13:07:23;95992.81;;;9.16;38.89
57606;BME280;43430;48.204;11.556;2023-04-06T13:09:49;95992.69;;;9.36;38.60
57606;BME280;43430;48.204;11.556;2023-04-06T13:12:15;95995.63;;;9.15;37.77
57606;BME280;43430;48.204;11.556;2023-04-06T13:14:40;95988.06;;;8.93;37.58
57606;BME280;43430;48.204;11.556;2023-04-06T13:17:06;95985.06;;;8.90;39.23
57606;BME280;43430;48.204;11.556;2023-04-06T13:19:32;95989.44;;;9.02;39.37
57606;BME280;43430;48.204;11.556;2023-04-06T13:21:57;95987.63;;;9.03;38.75
57606;BME280;43430;48.204;11.556;2023-04-06T13:24:23;95978.66;;;9.11;37.65
57606;BME280;43430;48.204;11.556;2023-04-06T13:26:49;95983.53;;;9.39;37.94
57606;BME280;43430;48.204;11.556;2023-04-06T13:29:15;95985.31;;;9.45;38.24
57606;BME280;43430;48.204;11.556;2023-04-06T13:31:40;95977.22;;;9.46;38.67
57606;BME280;43430;48.204;11.556;2023-04-06T13:34:06;95981.19;;;9.56;37.96
57606;BME280;43430;48.204;11.556;2023-04-06T13:36:31;95982.59;;;9.58;37.36
57606;BME280;43430;48.204;11.556;2023-04-06T13:38:57;95974.47;;;9.85;38.39
57606;BME280;43430;48.204;11.556;2023-04-06T13:41:25;95975.97;;;9.74;38.02
57606;BME280;43430;48.204;11.556;2023-04-06T13:43:52;95971.59;;;9.86;37.76
57606;BME280;43430;48.204;11.556;2023-04-06T13:46:17;95967.00;;;10.00;37.74
57606;BME280;43430;48.204;11.556;2023-04-06T13:48:43;95960.88;;;9.63;36.89
57606;BME280;43430;48.204;11.556;2023-04-06T13:51:10;95966.34;;;9.86;37.37
57606;BME280;43430;48.204;11.556;2023-04-06T13:53:35;95961.78;;;9.75;37.38
57606;BME280;43430;48.204;11.556;2023-04-06T13:56:01;95962.81;;;9.49;36.85
57606;BME280;43430;48.204;11.556;2023-04-06T13:58:26;95966.97;;;9.07;38.11
57606;BME280;43430;48.204;11.556;2023-04-06T14:00:52;95962.84;;;9.17;38.46
57606;BME280;43430;48.204;11.556;2023-04-06T14:03:18;95956.84;;;9.35;39.50
57606;BME280;43430;48.204;11.556;2023-04-06T14:05:44;95972.06;;;9.33;39.54
57606;BME280;43430;48.204;11.556;2023-04-06T14:08:10;95958.66;;;9.60;39.26
57606;BME280;43430;48.204;11.556;2023-04-06T14:10:39;95951.94;;;9.89;37.83
57606;BME280;43430;48.204;11.556;2023-04-06T14:13:07;95951.09;;;9.70;37.06
57606;BME280;43430;48.204;11.556;2023-04-06T14:15:33;95950.28;;;9.69;37.04
57606;BME280;43430;48.204;11.556;2023-04-06T14:17:59;95951.03;;;9.77;37.47
57606;BME280;43430;48.204;11.556;2023-04-06T14:20:25;95936.63;;;9.79;37.35
57606;BME280;43430;48.204;11.556;2023-04-06T14:22:51;95935.75;;;9.85;37.02
57606;BME280;43430;48.204;11.556;2023-04-06T14:25:17;95935.47;;;9.93;37.55
57606;BME280;43430;48.204;11.556;2023-04-06T14:27:43;95951.50;;;10.10;39.43
57606;BME280;43430;48.204;11.556;2023-04-06T14:30:09;95938.75;;;9.89;36.58
57606;BME280;43430;48.204;11.556;2023-04-06T14:32:35;95932.75;;;9.82;36.23
57606;BME280;43430;48.204;11.556;2023-04-06T14:35:01;95936.34;;;9.87;37.09
57606;BME280;43430;48.204;11.556;2023-04-06T14:37:26;95934.84;;;9.98;37.89
57606;BME280;43430;48.204;11.556;2023-04-06T14:39:52;95935.69;;;9.92;36.45
57606;BME280;43430;48.204;11.556;2023-04-06T14:42:17;95928.84;;;10.09;37.85
57606;BME280;43430;48.204;11.556;2023-04-06T14:44:43;95925.59;;;10.07;37.99
57606;BME280;43430;48.204;11.556;2023-04-06T14:47:10;95922.75;;;10.09;35.79
57606;BME280;43430;48.204;11.556;2023-04-06T14:49:36;95922.66;;;9.79;36.75
57606;BME280;43430;48.204;11.556;2023-04-06T14:52:02;95921.13;;;9.71;36.11
57606;BME280;43430;48.204;11.556;2023-04-06T14:54:27;95925.06;;;9.80;36.29
57606;BME280;43430;48.204;11.556;2023-04-06T14:56:52;95923.03;;;10.01;36.40
57606;BME280;43430;48.204;11.556;2023-04-06T14:59:18;95923.25;;;9.81;35.46
57606;BME280;43430;48.204;11.556;2023-04-06T15:01:43;95923.53;;;9.72;35.65
57606;BME280;43430;48.204;11.556;2023-04-06T15:04:08;95917.41;;;9.79;36.16
57606;BME280;43430;48.204;11.556;2023-04-06T15:06:34;95921.94;;;9.90;36.97
57606;BME280;43430;48.204;11.556;2023-04-06T15:08:59;95925.28;;;9.79;37.31
57606;BME280;43430;48.204;11.556;2023-04-06T15:11:25;95925.03;;;9.62;36.95
57606;BME280;43430;48.204;11.556;2023-04-06T15:13:51;95916.59;;;9.78;37.16
57606;BME280;43430;48.204;11.556;2023-04-06T15:16:16;95915.78;;;9.96;36.93
57606;BME280;43430;48.204;11.556;2023-04-06T15:18:42;95915.56;;;9.97;35.53
57606;BME280;43430;48.204;11.556;2023-04-06T15:21:07;95923.00;;;9.64;36.54
57606;BME280;43430;48.204;11.556;2023-04-06T15:23:33;95927.97;;;9.54;36.20
57606;BME280;43430;48.204;11.556;2023-04-06T15:26:00;95918.75;;;9.63;37.76
57606;BME280;43430;48.204;11.556;2023-04-06T15:28:25;95917.91;;;9.87;36.68
57606;BME280;43430;48.204;11.556;2023-04-06T15:30:51;95917.41;;;9.97;36.32
57606;BME280;43430;48.204;11.556;2023-04-06T15:33:16;95914.66;;;9.67;36.59
57606;BME280;43430;48.204;11.556;2023-04-06T15:35:42;95921.81;;;9.60;37.11
57606;BME280;43430;48.204;11.556;2023-04-06T15:38:09;95923.28;;;9.56;37.47
57606;BME280;43430;48.204;11.556;2023-04-06T15:40:42;95919.34;;;9.65;37.54
57606;BME280;43430;48.204;11.556;2023-04-06T15:43:19;95927.72;;;9.55;36.43
57606;BME280;43430;48.204;11.556;2023-04-06T15:45:45;95928.09;;;9.59;36.90
57606;BME280;43430;48.204;11.556;2023-04-06T15:48:11;95917.81;;;9.75;36.16
57606;BME280;43430;48.204;11.556;2023-04-06T15:50:36;95919.81;;;9.98;37.45
57606;BME280;43430;48.204;11.556;2023-04-06T15:53:02;95917.63;;;10.14;36.07
57606;BME280;43430;48.204;11.556;2023-04-06T15:55:27;95916.94;;;10.18;35.79
57606;BME280;43430;48.204;11.556;2023-04-06T15:57:53;95917.34;;;10.22;36.82
57606;BME280;43430;48.204;11.556;2023-04-06T16:00:18;95919.22;;;9.96;36.51
57606;BME280;43430;48.204;11.556;2023-04-06T16:02:44;95924.56;;;9.90;36.78
57606;BME280;43430;48.204;11.556;2023-04-06T16:05:12;95914.41;;;9.93;37.10
57606;BME280;43430;48.204;11.556;2023-04-06T16:07:37;95913.94;;;10.15;37.25
57606;BME280;43430;48.204;11.556;2023-04-06T16:10:03;95919.16;;;10.21;36.21
57606;BME280;43430;48.204;11.556;2023-04-06T16:12:29;95905.94;;;10.28;35.95
57606;BME280;43430;48.204;11.556;2023-04-06T16:14:55;95898.91;;;10.40;35.11
57606;BME280;43430;48.204;11.556;2023-04-06T16:17:21;95915.94;;;10.01;34.83
57606;BME280;43430;48.204;11.556;2023-04-06T16:19:47;95911.78;;;10.12;35.82
57606;BME280;43430;48.204;11.556;2023-04-06T16:22:14;95910.59;;;10.44;35.16
57606;BME280;43430;48.204;11.556;2023-04-06T16:24:40;95910.63;;;10.75;35.25
57606;BME280;43430;48.204;11.556;2023-04-06T16:27:06;95908.53;;;10.77;34.83
57606;BME280;43430;48.204;11.556;2023-04-06T16:29:34;95919.91;;;10.47;35.01
57606;BME280;43430;48.204;11.556;2023-04-06T16:31:59;95911.03;;;10.41;34.98
57606;BME280;43430;48.204;11.556;2023-04-06T16:34:30;95911.84;;;10.23;36.28
57606;BME280;43430;48.204;11.556;2023-04-06T16:37:02;95914.44;;;10.30;35.65
57606;BME280;43430;48.204;11.556;2023-04-06T16:39:29;95915.88;;;10.44;35.17
57606;BME280;43430;48.204;11.556;2023-04-06T16:41:55;95915.88;;;10.44;35.04
57606;BME280;43430;48.204;11.556;2023-04-06T16:44:20;95914.56;;;10.54;34.56
57606;BME280;43430;48.204;11.556;2023-04-06T16:46:46;95919.47;;;10.50;34.68
57606;BME280;43430;48.204;11.556;2023-04-06T16:49:12;95913.66;;;10.05;34.14
57606;BME280;43430;48.204;11.556;2023-04-06T16:51:39;95924.72;;;10.13;35.37
57606;BME280;43430;48.204;11.556;2023-04-06T16:54:05;95923.50;;;10.16;35.18
57606;BME280;43430;48.204;11.556;2023-04-06T16:56:31;95919.75;;;10.23;34.82
57606;BME280;43430;48.204;11.556;2023-04-06T16:58:59;95924.50;;;10.15;35.52
57606;BME280;43430;48.204;11.556;2023-04-06T17:01:26;95925.09;;;9.98;38.16
57606;BME280;43430;48.204;11.556;2023-04-06T17:03:55;95924.50;;;9.78;37.01
57606;BME280;43430;48.204;11.556;2023-04-06T17:06:21;95927.81;;;9.67;36.50
57606;BME280;43430;48.204;11.556;2023-04-06T17:08:47;95927.47;;;9.38;36.51
57606;BME280;43430;48.204;11.556;2023-04-06T17:11:22;95929.28;;;9.13;36.82
57606;BME280;43430;48.204;11.556;2023-04-06T17:17:10;95931.22;;;8.99;40.27
57606;BME280;43430;48.204;11.556;2023-04-06T17:19:38;95937.94;;;8.88;39.72
57606;BME280;43430;48.204;11.556;2023-04-06T17:22:03;95942.09;;;8.71;41.39
57606;BME280;43430;48.204;11.556;2023-04-06T17:24:29;95939.34;;;8.52;39.45
57606;BME280;43430;48.204;11.556;2023-04-06T17:26:55;95945.56;;;8.65;39.74
57606;BME280;43430;48.204;11.556;2023-04-06T17:29:20;95949.41;;;8.62;39.47
57606;BME280;43430;48.204;11.556;2023-04-06T17:31:46;95945.63;;;8.51;39.48
57606;BME280;43430;48.204;11.556;2023-04-06T17:34:11;95943.78;;;8.52;41.00
57606;BME280;43430;48.204;11.556;2023-04-06T17:36:36;95945.00;;;8.49;40.15
57606;BME280;43430;48.204;11.556;2023-04-06T17:39:02;95935.94;;;8.45;40.70
57606;BME280;43430;48.204;11.556;2023-04-06T17:41:27;95938.59;;;8.39;41.15
57606;BME280;43430;48.204;11.556;2023-04-06T17:43:53;95946.47;;;8.32;40.58
57606;BME280;43430;48.204;11.556;2023-04-06T17:46:18;95943.66;;;8.27;41.12
57606;BME280;43430;48.204;11.556;2023-04-06T17:48:45;95954.38;;;8.19;41.59
57606;BME280;43430;48.204;11.556;2023-04-06T17:51:14;95950.81;;;8.06;43.83
57606;BME280;43430;48.204;11.556;2023-04-06T17:53:43;95953.03;;;7.96;42.68
57606;BME280;43430;48.204;11.556;2023-04-06T17:56:08;95955.06;;;7.94;42.41
57606;BME280;43430;48.204;11.556;2023-04-06T17:58:34;95958.53;;;7.88;43.48
57606;BME280;43430;48.204;11.556;2023-04-06T18:01:04;95961.34;;;7.80;44.21
57606;BME280;43430;48.204;11.556;2023-04-06T18:03:31;95969.84;;;7.69;44.79
57606;BME280;43430;48.204;11.556;2023-04-06T18:05:56;95972.25;;;7.64;44.75
57606;BME280;43430;48.204;11.556;2023-04-06T18:08:22;95972.25;;;7.57;44.86
57606;BME280;43430;48.204;11.556;2023-04-06T18:10:47;95971.88;;;7.47;45.46
57606;BME280;43430;48.204;11.556;2023-04-06T18:13:13;95980.34;;;7.29;48.71
57606;BME280;43430;48.204;11.556;2023-04-06T18:15:38;95983.94;;;7.08;52.12
57606;BME280;43430;48.204;11.556;2023-04-06T18:18:04;95986.50;;;6.88;53.02
57606;BME280;43430;48.204;11.556;2023-04-06T18:20:31;95985.94;;;6.93;53.04
57606;BME280;43430;48.204;11.556;2023-04-06T18:22:56;95985.69;;;6.81;57.81
57606;BME280;43430;48.204;11.556;2023-04-06T18:25:22;95989.50;;;6.65;60.16
57606;BME280;43430;48.204;11.556;2023-04-06T18:27:49;95992.41;;;6.42;64.07
57606;BME280;43430;48.204;11.556;2023-04-06T18:30:15;95993.59;;;6.39;66.19
57606;BME280;43430;48.204;11.556;2023-04-06T18:32:42;96003.06;;;6.34;71.67
57606;BME280;43430;48.204;11.556;2023-04-06T18:35:07;95999.38;;;6.22;70.76
57606;BME280;43430;48.204;11.556;2023-04-06T18:37:34;96002.94;;;6.14;71.25
57606;BME280;43430;48.204;11.556;2023-04-06T18:40:00;96010.13;;;6.05;71.52
57606;BME280;43430;48.204;11.556;2023-04-06T18:42:26;96009.66;;;5.95;79.33
57606;BME280;43430;48.204;11.556;2023-04-06T18:44:51;96016.03;;;5.86;81.46
57606;BME280;43430;48.204;11.556;2023-04-06T18:47:16;96018.78;;;5.78;80.34
57606;BME280;43430;48.204;11.556;2023-04-06T18:49:42;96021.16;;;5.72;80.41
57606;BME280;43430;48.204;11.556;2023-04-06T18:52:07;96016.69;;;5.66;79.13
57606;BME280;43430;48.204;11.556;2023-04-06T18:54:32;96023.47;;;5.61;79.96
57606;BME280;43430;48.204;11.556;2023-04-06T18:56:58;96026.88;;;5.55;88.34
57606;BME280;43430;48.204;11.556;2023-04-06T18:59:23;96026.38;;;5.44;92.71
57606;BME280;43430;48.204;11.556;2023-04-06T19:01:50;96030.53;;;5.39;92.94
57606;BME280;43430;48.204;11.556;2023-04-06T19:04:19;96031.06;;;5.28;93.51
57606;BME280;43430;48.204;11.556;2023-04-06T19:06:44;96030.56;;;5.17;94.28
57606;BME280;43430;48.204;11.556;2023-04-06T19:09:09;96028.94;;;5.16;97.93
57606;BME280;43430;48.204;11.556;2023-04-06T19:11:35;96040.75;;;5.12;96.24
57606;BME280;43430;48.204;11.556;2023-04-06T19:14:00;96045.47;;;5.02;95.30
57606;BME280;43430;48.204;11.556;2023-04-06T19:16:26;96038.75;;;4.93;97.35
57606;BME280;43430;48.204;11.556;2023-04-06T19:18:51;96038.84;;;4.85;100.00
57606;BME280;43430;48.204;11.556;2023-04-06T19:21:18;96043.47;;;4.83;100.00
57606;BME280;43430;48.204;11.556;2023-04-06T19:23:45;96041.56;;;4.76;100.00
57606;BME280;43430;48.204;11.556;2023-04-06T19:26:12;96037.28;;;4.69;100.00
57606;BME280;43430;48.204;11.556;2023-04-06T19:28:38;96044.66;;;4.65;100.00
57606;BME280;43430;48.204;11.556;2023-04-06T19:31:05;96045.19;;;4.61;100.00
57606;BME280;43430;48.204;11.556;2023-04-06T19:33:32;96046.75;;;4.55;100.00
57606;BME280;43430;48.204;11.556;2023-04-06T19:35:57;96047.28;;;4.50;100.00
57606;BME280;43430;48.204;11.556;2023-04-06T19:38:22;96038.38;;;4.45;100.00
57606;BME280;43430;48.204;11.556;2023-04-06T19:40:48;96042.34;;;4.41;100.00
57606;BME280;43430;48.204;11.556;2023-04-06T19:43:14;96040.47;;;4.35;100.00
57606;BME280;43430;48.204;11.556;2023-04-06T19:45:41;96037.41;;;4.31;100.00
57606;BME280;43430;48.204;11.556;2023-04-06T19:48:06;96051.25;;;4.32;100.00
57606;BME280;43430;48.204;11.556;2023-04-06T19:50:31;96048.56;;;4.25;100.00
57606;BME280;43430;48.204;11.556;2023-04-06T19:52:57;96050.53;;;4.23;100.00
57606;BME280;43430;48.204;11.556;2023-04-06T19:55:23;96049.13;;;4.20;100.00
57606;BME280;43430;48.204;11.556;2023-04-06T19:57:49;96053.53;;;4.20;100.00
57606;BME280;43430;48.204;11.556;2023-04-06T20:00:14;96053.88;;;4.17;100.00
57606;BME280;43430;48.204;11.556;2023-04-06T20:02:40;96049.28;;;4.19;100.00
57606;BME280;43430;48.204;11.556;2023-04-06T20:05:06;96058.56;;;4.21;100.00
57606;BME280;43430;48.204;11.556;2023-04-06T20:07:33;96051.53;;;4.22;100.00
57606;BME280;43430;48.204;11.556;2023-04-06T20:10:01;96050.00;;;4.27;100.00
57606;BME280;43430;48.204;11.556;2023-04-06T20:12:27;96049.28;;;4.34;100.00
57606;BME280;43430;48.204;11.556;2023-04-06T20:14:55;96038.91;;;4.40;100.00
57606;BME280;43430;48.204;11.556;2023-04-06T20:17:22;96048.03;;;4.44;100.00
57606;BME280;43430;48.204;11.556;2023-04-06T20:19:48;96048.28;;;4.49;100.00
57606;BME280;43430;48.204;11.556;2023-04-06T20:22:14;96054.13;;;4.51;100.00
57606;BME280;43430;48.204;11.556;2023-04-06T20:24:40;96055.09;;;4.50;100.00
57606;BME280;43430;48.204;11.556;2023-04-06T20:27:06;96049.72;;;4.52;100.00
57606;BME280;43430;48.204;11.556;2023-04-06T20:29:31;96049.72;;;4.52;100.00
57606;BME280;43430;48.204;11.556;2023-04-06T20:31:57;96051.69;;;4.50;100.00
57606;BME280;43430;48.204;11.556;2023-04-06T20:34:23;96051.69;;;4.50;100.00
57606;BME280;43430;48.204;11.556;2023-04-06T20:36:53;96042.59;;;4.46;100.00
57606;BME280;43430;48.204;11.556;2023-04-06T20:39:18;96047.19;;;4.44;100.00
57606;BME280;43430;48.204;11.556;2023-04-06T20:41:43;96037.75;;;4.43;100.00
57606;BME280;43430;48.204;11.556;2023-04-06T20:44:09;96041.34;;;4.42;100.00
57606;BME280;43430;48.204;11.556;2023-04-06T20:46:35;96041.53;;;4.40;100.00
57606;BME280;43430;48.204;11.556;2023-04-06T20:49:01;96036.84;;;4.36;100.00
57606;BME280;43430;48.204;11.556;2023-04-06T20:51:27;96037.41;;;4.31;100.00
57606;BME280;43430;48.204;11.556;2023-04-06T20:53:53;96036.59;;;4.31;100.00
57606;BME280;43430;48.204;11.556;2023-04-06T20:56:20;96033.72;;;4.25;100.00
57606;BME280;43430;48.204;11.556;2023-04-06T20:58:46;96032.09;;;4.24;100.00
57606;BME280;43430;48.204;11.556;2023-04-06T21:01:15;96027.03;;;4.23;100.00
57606;BME280;43430;48.204;11.556;2023-04-06T21:03:41;96029.19;;;4.19;100.00
57606;BME280;43430;48.204;11.556;2023-04-06T21:06:08;96029.56;;;4.16;100.00
57606;BME280;43430;48.204;11.556;2023-04-06T21:08:33;96032.91;;;4.10;100.00
57606;BME280;43430;48.204;11.556;2023-04-06T21:11:00;96030.22;;;4.03;100.00
57606;BME280;43430;48.204;11.556;2023-04-06T21:13:25;96033.34;;;3.99;100.00
57606;BME280;43430;48.204;11.556;2023-04-06T21:15:57;96029.81;;;3.92;100.00
57606;BME280;43430;48.204;11.556;2023-04-06T21:18:22;96029.00;;;3.91;100.00
57606;BME280;43430;48.204;11.556;2023-04-06T21:20:48;96028.50;;;3.96;100.00
57606;BME280;43430;48.204;11.556;2023-04-06T21:23:14;96032.72;;;3.97;100.00
57606;BME280;43430;48.204;11.556;2023-04-06T21:25:41;96033.97;;;4.01;100.00
57606;BME280;43430;48.204;11.556;2023-04-06T21:28:06;96028.22;;;4.05;100.00
57606;BME280;43430;48.204;11.556;2023-04-06T21:30:32;96024.28;;;4.10;100.00
57606;BME280;43430;48.204;11.556;2023-04-06T21:33:05;96024.72;;;4.13;100.00
57606;BME280;43430;48.204;11.556;2023-04-06T21:35:31;96018.69;;;4.27;100.00
57606;BME280;43430;48.204;11.556;2023-04-06T21:37:57;96021.09;;;4.44;100.00
57606;BME280;43430;48.204;11.556;2023-04-06T21:40:22;96009.38;;;4.55;100.00
57606;BME280;43430;48.204;11.556;2023-04-06T21:42:48;96020.16;;;4.66;100.00
57606;BME280;43430;48.204;11.556;2023-04-06T21:45:13;96019.88;;;4.76;99.90
57606;BME280;43430;48.204;11.556;2023-04-06T21:47:39;96015.22;;;4.93;99.40
57606;BME280;43430;48.204;11.556;2023-04-06T21:50:04;96007.34;;;5.08;95.71
57606;BME280;43430;48.204;11.556;2023-04-06T21:52:30;96001.38;;;5.14;93.70
57606;BME280;43430;48.204;11.556;2023-04-06T21:54:55;96005.84;;;5.20;92.36
57606;BME280;43430;48.204;11.556;2023-04-06T21:57:22;96007.91;;;5.24;90.56
57606;BME280;43430;48.204;11.556;2023-04-06T21:59:47;96009.56;;;5.32;90.35
57606;BME280;43430;48.204;11.556;2023-04-06T22:02:13;96005.63;;;5.43;89.19
57606;BME280;43430;48.204;11.556;2023-04-06T22:04:38;96004.84;;;5.42;85.93
57606;BME280;43430;48.204;11.556;2023-04-06T22:07:04;96006.13;;;5.53;83.97
57606;BME280;43430;48.204;11.556;2023-04-06T22:09:30;96002.53;;;5.54;83.72
57606;BME280;43430;48.204;11.556;2023-04-06T22:11:55;96002.91;;;5.51;84.94
57606;BME280;43430;48.204;11.556;2023-04-06T22:14:21;96007.13;;;5.52;86.78
57606;BME280;43430;48.204;11.556;2023-04-06T22:16:46;96007.72;;;5.47;86.93
57606;BME280;43430;48.204;11.556;2023-04-06T22:19:11;95993.47;;;5.57;83.84
57606;BME280;43430;48.204;11.556;2023-04-06T22:21:37;95992.50;;;5.58;84.25
57606;BME280;43430;48.204;11.556;2023-04-06T22:24:02;95997.09;;;5.56;83.88
57606;BME280;43430;48.204;11.556;2023-04-06T22:26:28;95996.03;;;5.50;82.20
57606;BME280;43430;48.204;11.556;2023-04-06T22:28:53;95993.84;;;5.54;84.46
57606;BME280;43430;48.204;11.556;2023-04-06T22:31:19;95993.25;;;5.52;84.75
57606;BME280;43430;48.204;11.556;2023-04-06T22:33:45;95989.19;;;5.49;81.59
57606;BME280;43430;48.204;11.556;2023-04-06T22:36:10;95991.28;;;5.60;85.17
57606;BME280;43430;48.204;11.556;2023-04-06T22:38:36;95981.88;;;5.66;81.30
57606;BME280;43430;48.204;11.556;2023-04-06T22:41:01;95978.59;;;5.57;81.55
57606;BME280;43430;48.204;11.556;2023-04-06T22:43:27;95973.13;;;5.52;83.71
57606;BME280;43430;48.204;11.556;2023-04-06T22:45:52;95974.56;;;5.55;81.68
57606;BME280;43430;48.204;11.556;2023-04-06T22:48:17;95979.97;;;5.53;85.29
57606;BME280;43430;48.204;11.556;2023-04-06T22:50:43;95971.53;;;5.51;83.56
57606;BME280;43430;48.204;11.556;2023-04-06T22:53:08;95966.66;;;5.48;83.65
57606;BME280;43430;48.204;11.556;2023-04-06T22:55:34;95977.50;;;5.45;87.55
57606;BME280;43430;48.204;11.556;2023-04-06T22:57:59;95963.78;;;5.43;86.07
57606;BME280;43430;48.204;11.556;2023-04-06T23:00:25;95969.59;;;5.38;82.83
57606;BME280;43430;48.204;11.556;2023-04-06T23:02:50;95970.03;;;5.42;84.78
57606;BME280;43430;48.204;11.556;2023-04-06T23:05:15;95969.03;;;5.43;86.98
57606;BME280;43430;48.204;11.556;2023-04-06T23:07:41;95968.81;;;5.38;85.33
57606;BME280;43430;48.204;11.556;2023-04-06T23:10:06;95963.75;;;5.36;83.80
57606;BME280;43430;48.204;11.556;2023-04-06T23:12:32;95964.53;;;5.30;85.16
57606;BME280;43430;48.204;11.556;2023-04-06T23:14:58;95961.06;;;5.30;85.50
57606;BME280;43430;48.204;11.556;2023-04-06T23:17:23;95964.09;;;5.27;88.77
57606;BME280;43430;48.204;11.556;2023-04-06T23:19:49;95965.00;;;5.19;88.96
57606;BME280;43430;48.204;11.556;2023-04-06T23:22:15;95965.38;;;5.16;83.73
57606;BME280;43430;48.204;11.556;2023-04-06T23:24:43;95970.38;;;5.11;87.70
57606;BME280;43430;48.204;11.556;2023-04-06T23:27:09;95965.16;;;5.11;83.47
57606;BME280;43430;48.204;11.556;2023-04-06T23:29:34;95963.28;;;5.05;82.45
57606;BME280;43430;48.204;11.556;2023-04-06T23:32:00;95964.44;;;5.02;86.04
57606;BME280;43430;48.204;11.556;2023-04-06T23:34:25;95964.44;;;5.02;89.39
57606;BME280;43430;48.204;11.556;2023-04-06T23:36:51;95958.63;;;5.00;86.75
57606;BME280;43430;48.204;11.556;2023-04-06T23:39:17;95956.94;;;4.92;90.05
57606;BME280;43430;48.204;11.556;2023-04-06T23:41:42;95958.22;;;4.82;89.00
57606;BME280;43430;48.204;11.556;2023-04-06T23:44:08;95963.41;;;4.75;89.97
57606;BME280;43430;48.204;11.556;2023-04-06T23:46:33;95964.38;;;4.74;90.38
57606;BME280;43430;48.204;11.556;2023-04-06T23:48:58;95957.13;;;4.69;90.23
57606;BME280;43430;48.204;11.556;2023-04-06T23:51:24;95958.66;;;4.64;91.27
57606;BME280;43430;48.204;11.556;2023-04-06T23:53:49;95957.97;;;4.55;92.45
57606;BME280;43430;48.204;11.556;2023-04-06T23:56:15;95956.75;;;4.36;90.40
57606;BME280;43430;48.204;11.556;2023-04-06T23:58:41;95955.50;;;4.32;92.02
